Date,TemperatureHighF,TemperatureAvgF,TemperatureLowF,DewpointHighF,DewpointAvgF,DewpointLowF,HumidityHigh,HumidityAvg,HumidityLow,PressureMaxIn,PressureMinIn,WindSpeedMaxMPH,WindSpeedAvgMPH,GustSpeedMaxMPH,PrecipitationSumIn
2013-1-1,37.5,31.4,26.7,34.9,29.9,25.4,98,94,88,30.43,30.31,7,0,9,0.00
2013-1-2,35.1,29.8,26.8,32.7,28.6,25.9,98,96,87,30.32,30.18,4,0,5,0.01
2013-1-3,39.2,32.0,26.1,37.8,30.9,25.4,98,96,91,30.29,30.13,5,0,5,0.00
2013-1-4,52.1,41.2,33.6,45.3,38.8,32.3,98,92,76,30.32,30.14,9,0,10,0.00
2013-1-5,41.5,36.8,33.4,40.9,35.9,32.1,98,97,95,30.20,30.14,5,0,7,0.01
2013-1-6,50.1,41.7,36.0,44.4,39.7,35.3,100,93,78,30.24,30.14,5,0,8,0.09
2013-1-7,50.6,46.7,42.2,49.7,45.9,41.2,99,97,95,30.24,30.10,11,1,14,0.17
2013-1-8,52.4,47.3,42.7,50.7,46.3,41.3,99,97,92,30.24,29.95,9,0,11,0.01
2013-1-9,44.4,40.8,35.8,44.1,39.7,35.0,99,96,87,30.01,29.78,15,1,18,0.25
2013-1-10,39.0,36.0,33.5,38.2,35.2,32.7,98,97,96,30.15,30.00,12,1,12,0.34
2013-1-11,40.4,34.1,27.1,37.9,32.2,25.8,99,93,72,30.30,30.13,10,0,11,0.01
2013-1-12,36.1,28.7,22.0,31.8,27.0,20.8,98,94,78,30.39,30.29,7,0,8,0.01
2013-1-13,33.0,28.9,24.8,28.7,26.5,22.9,97,91,79,30.48,30.39,9,2,9,0.00
2013-1-14,39.1,30.1,22.8,31.3,26.9,21.3,100,88,69,30.57,30.47,7,0,7,0.00
2013-1-15,39.3,32.3,23.8,36.2,30.5,22.6,98,93,84,30.63,30.55,9,1,10,0.00
2013-1-16,36.4,33.7,32.2,35.4,32.9,31.3,98,97,94,30.63,30.47,5,0,6,0.00
2013-1-17,34.2,32.3,30.8,33.7,31.7,30.3,98,98,96,30.48,30.31,4,0,4,0.00
2013-1-18,34.6,31.6,28.7,34.1,31.0,28.2,99,98,97,30.32,30.26,4,0,5,0.01
2013-1-19,34.6,31.5,29.0,34.1,31.0,28.5,100,98,97,30.33,30.27,5,0,5,0.00
2013-1-20,31.4,30.0,28.5,30.9,29.5,28.0,100,98,97,30.34,30.24,4,0,7,0.00
2013-1-21,28.8,27.0,24.4,28.4,26.6,23.9,100,98,98,30.27,30.18,4,0,4,0.00
2013-1-24,43.7,43.6,43.6,43.1,43.0,43.0,98,98,98,30.16,30.15,0,0,0,0.20
2013-1-25,51.5,46.1,37.4,51.2,45.7,36.6,100,99,97,30.15,29.97,5,0,6,0.51
2013-1-26,45.7,40.7,36.7,45.0,39.9,35.9,99,97,92,30.12,29.98,10,1,11,0.25
2013-1-27,43.5,39.9,38.2,42.7,39.2,37.6,100,97,94,30.19,30.09,11,2,11,0.30
2013-1-28,42.2,40.3,38.1,41.9,39.9,37.4,99,99,98,30.28,30.12,9,2,11,0.44
2013-1-29,46.5,43.6,40.9,46.2,43.2,40.3,99,99,97,30.52,30.28,9,2,11,0.21
2013-1-30,47.8,43.9,40.4,47.5,43.4,39.8,99,98,98,30.54,30.45,6,0,7,0.17
2013-1-31,50.3,44.3,39.3,47.2,42.9,38.7,99,95,84,30.46,30.33,6,0,6,0.00
2013-2-1,47.0,39.7,32.1,45.4,38.7,31.3,100,96,90,30.35,30.24,8,1,9,0.00
2013-2-2,51.1,40.5,33.5,47.0,39.1,32.9,99,95,84,30.32,30.24,6,0,6,0.01
2013-2-3,48.1,42.4,37.6,44.9,40.8,36.7,99,94,83,30.33,30.23,6,0,6,0.00
2013-2-4,54.1,44.9,38.9,46.9,42.0,37.9,98,90,73,30.24,29.95,6,0,6,0.00
2013-2-5,50.7,45.6,43.2,49.3,43.9,41.8,98,94,85,30.10,29.95,12,2,15,0.40
2013-2-6,53.1,45.8,41.5,46.8,42.1,39.1,98,88,67,30.13,29.87,10,1,13,0.11
2013-2-7,47.8,41.2,37.4,42.8,39.0,36.3,98,92,78,30.11,29.96,10,1,12,0.24
2013-2-8,43.7,38.7,36.0,39.5,36.2,33.6,98,91,77,30.27,30.10,11,1,13,0.00
2013-2-9,46.7,40.0,33.9,40.5,37.1,32.6,97,90,77,30.31,30.26,5,0,6,0.01
2013-2-10,46.4,42.3,39.4,42.2,39.3,37.3,100,89,79,30.33,30.28,7,1,8,0.00
2013-2-11,49.7,44.2,40.4,41.9,39.1,36.5,93,83,67,30.41,30.29,7,0,7,0.00
2013-2-12,54.4,46.9,43.0,50.4,45.2,41.7,98,94,84,30.50,30.41,7,0,8,0.16
2013-2-13,51.2,47.2,44.3,48.6,45.9,43.4,99,95,90,30.50,30.43,6,0,6,0.02
2013-2-14,56.9,48.3,40.1,49.4,44.9,38.1,97,89,74,30.54,30.43,10,1,11,0.00
2013-2-15,45.3,40.4,34.8,43.5,39.1,33.6,98,95,91,30.44,30.23,7,0,8,0.01
2013-2-16,49.5,40.6,32.3,48.2,39.4,31.3,99,96,91,30.31,30.25,8,0,10,0.06
2013-2-17,49.2,41.0,32.7,38.8,35.5,30.3,96,81,64,30.29,30.08,8,1,10,0.01
2013-2-18,47.9,37.5,29.4,39.3,33.7,28.0,97,87,67,30.08,29.75,9,0,10,0.00
2013-2-19,48.9,41.2,35.9,42.6,38.1,34.6,97,89,72,30.00,29.64,11,1,11,0.09
2013-2-20,49.7,41.6,35.7,41.7,38.5,34.1,97,89,66,30.13,30.00,10,1,15,0.30
2013-2-21,44.6,40.4,37.5,42.9,39.2,36.3,98,96,90,30.25,30.13,9,1,10,0.20
2013-2-22,45.0,41.5,37.0,43.6,40.4,35.7,98,96,92,30.24,29.98,15,2,17,0.26
2013-2-23,45.9,38.0,33.0,43.9,36.7,32.2,98,95,85,30.47,30.15,12,1,13,0.21
2013-2-24,51.4,40.0,32.0,43.0,36.8,31.2,99,90,66,30.47,30.15,8,1,9,0.00
2013-2-25,47.9,42.0,35.9,43.9,38.9,33.8,96,89,68,30.41,30.11,13,2,19,0.09
2013-2-26,51.2,40.0,29.5,40.7,35.1,28.0,98,84,58,30.41,30.24,7,0,9,0.01
2013-2-27,52.7,44.2,35.5,45.6,40.9,33.9,100,89,73,30.32,30.24,11,1,11,0.06
2013-2-28,56.1,50.0,45.4,54.0,48.8,44.3,98,96,91,30.48,30.23,10,1,11,0.07
2013-3-1,64.1,53.0,45.7,53.7,49.0,44.1,98,87,63,30.47,30.30,8,0,8,0.00
2013-3-2,54.6,48.9,44.2,51.1,47.0,42.2,96,93,87,30.31,30.18,11,0,11,0.07
2013-3-3,53.7,43.2,32.4,42.2,35.2,29.1,98,76,42,30.29,30.19,12,2,13,0.00
2013-3-4,56.9,39.7,27.5,41.6,34.3,25.8,97,83,50,30.19,29.90,7,1,8,0.00
2013-3-5,48.1,41.4,34.1,45.5,40.0,32.5,98,95,87,29.90,29.59,6,0,8,0.32
2013-3-6,48.8,42.4,35.7,45.8,41.1,34.4,97,95,85,29.98,29.53,14,2,19,0.50
2013-3-7,56.7,42.0,30.3,44.5,36.7,29.3,99,84,48,30.04,29.95,21,1,21,0.32
2013-3-8,53.2,41.5,35.1,44.0,38.2,33.4,98,89,67,30.21,30.00,8,1,10,0.00
2013-3-9,61.0,43.0,30.8,45.6,36.5,29.5,98,81,43,30.50,30.21,9,1,10,0.01
2013-3-10,62.6,46.4,30.8,46.1,38.2,29.3,98,76,40,30.51,30.38,7,0,8,0.00
2013-3-11,65.8,54.6,47.6,52.6,48.3,45.1,94,80,58,30.40,30.22,10,1,10,0.00
2013-3-12,61.4,50.8,41.5,52.2,46.7,39.9,97,87,70,30.24,30.14,8,0,8,0.00
2013-3-13,69.2,55.6,46.2,53.6,49.0,43.9,95,80,54,30.22,30.06,7,0,8,0.00
2013-3-14,61.7,52.6,43.7,51.8,46.7,42.1,97,82,57,30.22,30.04,11,1,12,0.00
2013-3-15,66.4,56.0,48.9,52.9,48.9,45.1,94,79,52,30.22,30.14,14,1,14,0.00
2013-3-16,50.7,48.3,42.8,48.0,45.4,40.9,96,90,79,30.19,30.06,12,1,16,0.17
2013-3-17,42.7,41.1,38.5,40.5,38.8,36.3,93,92,91,30.24,30.19,5,0,5,0.01
2013-3-30,69.8,61.3,54.9,58.0,54.5,51.8,92,79,65,29.97,29.90,4,0,4,0.00
2013-3-31,72.2,57.7,44.7,56.1,50.5,42.7,97,79,50,30.02,29.92,11,1,13,0.00
2013-4-1,61.4,55.2,51.9,54.7,51.9,48.6,97,89,73,30.18,30.01,7,0,8,0.04
2013-4-2,70.8,57.9,50.0,55.2,50.3,46.8,94,78,47,30.20,30.09,8,1,9,0.00
2013-4-3,67.6,54.2,41.4,55.2,49.0,39.8,98,84,60,30.14,29.87,8,1,9,0.00
2013-4-4,60.6,55.9,51.0,57.8,53.6,49.3,96,92,83,29.91,29.69,17,2,23,0.25
2013-4-5,61.4,53.3,49.7,54.5,50.8,48.3,97,92,72,29.98,29.87,13,2,15,0.26
2013-4-6,57.6,50.8,47.5,51.8,48.7,45.9,97,93,76,30.04,29.74,14,2,17,0.74
2013-4-7,52.0,47.4,40.8,48.6,44.6,39.4,97,90,75,29.99,29.69,20,4,25,0.34
2013-4-8,57.2,47.0,40.5,47.0,42.5,39.4,98,86,61,30.28,29.99,9,1,10,0.03
2013-4-9,61.2,50.5,42.1,48.6,43.8,40.3,96,79,56,30.34,30.26,6,1,7,0.00
2013-4-10,62.9,50.5,41.3,55.4,46.1,39.7,97,86,58,30.32,30.21,9,1,12,0.06
2013-4-11,60.2,48.3,37.2,45.2,40.2,35.1,96,75,48,30.34,30.14,12,1,13,0.00
2013-4-12,61.6,46.9,33.0,48.6,38.9,30.9,97,76,41,30.15,29.89,13,1,13,0.00
2013-4-13,53.9,46.5,38.1,45.2,38.4,33.0,89,74,52,30.13,29.95,15,2,15,0.02
2013-4-14,52.5,43.5,37.9,43.9,39.2,33.6,94,85,64,30.13,29.93,10,1,10,0.08
2013-4-15,50.9,43.0,40.1,47.4,40.7,38.1,100,92,79,30.19,29.94,14,1,14,0.54
2013-4-16,59.8,46.8,39.6,45.8,40.8,36.6,97,82,43,30.39,30.18,12,1,15,0.04
2013-4-17,62.1,48.8,37.5,44.5,39.4,34.3,95,73,36,30.49,30.39,10,1,12,0.00
2013-4-18,65.1,53.4,41.6,48.1,44.2,38.7,94,73,47,30.47,30.33,9,1,10,0.00
2013-4-19,60.7,52.3,48.3,55.5,49.1,45.3,97,89,75,30.34,30.23,9,1,12,0.57
2013-4-20,66.5,53.8,45.4,51.5,46.4,42.3,96,78,44,30.35,30.22,8,1,10,0.05
2013-4-21,62.0,51.8,41.5,52.0,46.4,39.0,96,83,64,30.29,30.20,7,1,9,0.00
2013-4-22,70.4,54.3,39.5,51.7,41.7,30.4,96,67,32,30.34,30.22,17,2,21,0.00
2013-4-23,59.9,41.3,33.2,40.6,34.3,30.6,93,78,46,30.31,30.22,7,1,8,0.00
2013-4-26,82.0,68.6,43.8,54.3,47.4,35.0,100,51,20,30.21,30.13,10,1,11,0.00
2013-4-27,80.6,60.6,42.8,49.7,42.6,34.3,94,58,23,30.25,30.15,11,1,15,0.00
2013-4-28,69.4,57.0,45.9,51.4,45.6,40.6,88,68,42,30.28,30.12,10,1,11,0.00
2013-4-29,63.7,54.7,42.4,50.3,43.4,34.7,92,68,40,30.20,30.11,13,2,14,0.04
2013-4-30,61.1,46.6,32.3,38.8,34.0,29.8,95,65,36,30.38,30.20,11,1,14,0.00
2013-5-1,72.3,51.3,30.8,47.2,38.5,28.5,95,66,32,30.47,30.35,12,2,15,0.00
2013-5-2,81.7,59.0,37.9,52.2,42.8,35.3,96,61,25,30.39,30.18,10,1,13,0.00
2013-5-3,82.3,61.2,40.5,52.7,45.5,37.6,95,61,29,30.25,30.05,11,2,13,0.00
2013-5-4,85.2,66.0,43.3,51.7,40.7,32.0,96,49,18,30.07,29.79,24,3,26,0.00
2013-5-5,91.6,70.0,46.4,48.9,42.7,34.9,81,43,18,29.79,29.56,15,2,18,0.00
2013-5-6,82.0,64.5,48.8,55.9,49.2,44.4,89,61,35,29.92,29.74,11,1,12,0.00
2013-5-7,78.8,61.2,45.5,55.2,49.0,42.5,95,67,38,30.04,29.89,10,1,11,0.00
2013-5-8,73.5,58.9,46.0,56.1,49.8,42.9,94,74,43,30.11,30.03,12,1,13,0.00
2013-5-9,82.3,64.2,47.9,61.0,53.7,45.3,95,71,46,30.17,30.03,10,1,12,0.00
2013-5-10,84.9,67.2,50.4,61.4,54.6,47.9,96,68,33,30.19,30.07,9,1,10,0.00
2013-5-11,86.7,70.0,54.6,61.7,56.0,50.7,91,65,32,30.19,29.96,7,1,9,0.00
2013-5-12,81.4,65.6,54.8,63.1,55.9,50.9,95,73,40,30.12,30.04,13,1,14,0.00
2013-5-13,65.9,58.9,57.0,58.1,55.7,53.7,96,90,73,30.10,30.05,7,0,10,0.04
2013-5-14,72.2,64.5,49.9,50.0,43.2,34.6,74,48,28,30.11,30.06,11,1,11,0.00
2013-5-15,66.3,53.9,45.5,53.4,47.4,41.2,92,79,56,30.10,30.00,7,0,9,0.05
2013-5-16,60.1,54.8,51.3,55.5,51.9,49.3,94,90,77,30.01,29.94,7,0,9,0.16
2013-5-17,66.8,55.0,47.5,53.5,49.4,45.0,98,83,47,30.10,30.00,12,0,12,0.01
2013-5-18,59.6,54.2,49.9,55.1,50.6,47.0,95,88,79,30.29,30.10,6,0,7,0.06
2013-5-19,68.2,57.3,48.5,56.3,49.9,43.4,96,79,48,30.38,30.28,12,1,12,0.06
2013-5-20,76.8,57.3,39.5,54.4,45.8,37.4,97,70,37,30.31,29.93,9,1,11,0.00
2013-5-21,55.7,48.5,42.2,50.9,44.8,38.9,96,88,65,30.05,29.82,13,1,13,0.69
2013-5-22,49.6,44.7,40.1,47.4,42.8,38.7,100,93,87,30.05,30.00,13,2,18,0.67
2013-5-23,60.8,50.6,44.3,49.2,45.6,42.4,96,84,58,30.06,30.01,13,1,13,0.15
2013-5-24,62.7,53.1,46.4,50.8,46.9,44.9,96,81,57,30.09,30.02,14,1,14,0.07
2013-5-25,73.2,56.8,39.5,55.2,46.4,37.4,97,72,37,30.08,29.91,8,1,9,0.18
2013-5-26,68.1,57.4,49.2,55.8,51.1,46.0,97,81,55,30.04,29.95,13,1,14,0.26
2013-5-27,66.9,56.0,48.2,61.1,53.1,45.3,97,90,75,29.98,29.77,16,1,18,0.56
2013-5-28,70.8,58.6,51.8,55.3,51.1,47.8,95,78,52,29.94,29.74,12,1,13,0.11
2013-5-29,64.4,56.2,49.7,58.5,51.3,45.9,96,84,67,30.08,29.69,15,2,17,0.25
2013-5-30,63.7,55.0,47.5,50.4,46.9,44.5,94,76,52,30.24,30.08,8,1,10,0.00
2013-5-31,72.8,58.5,44.4,55.2,49.0,42.4,96,73,48,30.29,30.18,12,1,13,0.00
2013-6-1,81.3,62.5,43.7,57.4,50.9,41.5,97,70,40,30.22,29.98,11,1,12,0.00
2013-6-2,75.3,62.1,54.5,57.6,52.2,48.8,92,72,44,30.04,29.98,11,1,14,0.00
2013-6-3,80.5,62.0,46.9,60.3,51.5,44.5,96,72,40,30.07,29.96,12,1,13,0.00
2013-6-4,83.0,64.2,45.1,60.4,51.3,42.6,96,67,31,30.04,29.92,9,1,13,0.00
2013-6-5,89.7,69.6,50.6,62.4,53.8,47.0,95,63,24,30.04,29.91,10,1,11,0.00
2013-6-6,87.5,70.2,53.9,64.4,56.4,47.1,93,66,26,30.01,29.92,10,1,14,0.00
2013-6-7,85.8,69.7,53.0,60.6,54.8,43.3,94,64,27,30.09,30.00,14,1,14,0.00
2013-6-8,83.4,67.6,54.1,61.3,52.1,37.4,94,63,24,30.11,29.98,11,1,11,0.00
2013-6-9,81.0,65.2,50.5,57.3,50.6,43.1,91,62,33,30.04,29.90,12,2,14,0.00
2013-6-10,74.3,59.3,45.1,51.9,47.1,41.5,94,67,32,29.97,29.85,10,1,12,0.00
2013-6-11,68.8,58.6,52.2,49.7,46.6,43.4,81,66,47,30.13,29.97,9,1,9,0.00
2013-6-12,66.8,56.5,45.2,50.5,46.7,42.0,94,71,49,30.18,30.12,9,1,11,0.00
2013-6-13,61.1,54.4,49.5,57.7,50.6,45.4,95,87,76,30.30,30.18,8,1,9,0.47
2013-6-14,78.0,60.0,45.5,58.7,51.1,43.8,98,76,43,30.30,29.95,12,1,13,0.00
2013-6-15,83.0,64.4,47.2,59.3,51.6,45.1,96,68,32,30.02,29.89,9,1,9,0.00
2013-6-16,80.5,63.7,49.7,57.3,52.3,47.1,95,70,41,30.12,30.01,10,1,16,0.00
2013-6-17,81.9,64.3,50.5,56.9,51.6,47.2,92,67,35,30.11,29.93,10,1,16,0.00
2013-6-18,72.2,58.9,51.5,56.0,50.7,46.5,88,76,40,30.02,29.93,6,0,13,0.26
2013-6-26,72.3,66.8,59.8,62.9,60.5,58.1,97,81,68,30.01,29.93,11,1,11,0.00
2013-6-27,87.2,72.3,58.5,65.7,61.5,56.3,95,72,43,30.11,30.00,11,1,13,0.00
2013-6-28,94.7,75.9,58.0,69.7,61.7,55.9,98,66,35,30.12,29.98,10,1,12,0.00
2013-6-29,93.5,75.5,58.7,67.5,60.2,55.4,93,63,33,30.08,29.91,9,1,10,0.00
2013-6-30,97.3,76.6,57.8,68.0,62.5,55.4,95,66,33,29.94,29.80,12,1,14,0.00
2013-7-1,95.1,78.3,61.8,70.9,65.1,58.8,92,67,43,29.95,29.88,9,1,10,0.00
2013-7-2,96.6,78.4,63.0,72.2,65.0,58.4,92,66,40,30.03,29.92,10,1,10,0.00
2013-7-3,92.4,75.3,60.5,62.0,55.6,43.0,86,56,21,30.07,29.96,10,1,11,0.00
2013-7-4,84.7,68.5,52.6,56.0,51.9,47.3,89,59,31,30.10,29.94,12,2,16,0.00
2013-7-5,81.4,66.9,54.1,54.3,51.3,47.3,85,60,36,30.03,29.88,16,2,16,0.00
2013-7-6,85.0,66.3,49.3,59.2,53.9,46.6,95,68,37,29.93,29.81,16,2,16,0.00
2013-7-7,87.0,68.5,51.8,61.7,55.8,49.3,95,68,36,29.93,29.82,11,1,13,0.00
2013-7-8,89.7,70.1,51.2,62.3,54.7,47.9,94,62,31,30.03,29.92,11,2,12,0.00
2013-7-9,94.7,73.5,53.0,64.1,56.8,50.2,95,61,28,30.04,29.92,12,1,13,0.00
2013-7-10,92.0,73.0,56.3,61.3,56.1,51.6,93,60,28,30.01,29.84,11,1,12,0.00
2013-7-11,82.4,66.5,50.8,53.7,49.4,44.8,86,58,33,30.02,29.89,12,2,13,0.00
2013-7-12,82.8,64.5,47.0,54.0,47.9,43.9,93,60,26,30.04,29.94,12,1,15,0.00
2013-7-13,87.7,66.9,46.7,54.3,48.1,42.6,93,57,27,30.10,29.95,11,2,13,0.00
2013-7-14,93.7,70.7,48.6,57.9,51.0,44.5,92,55,24,30.05,29.89,9,1,11,0.00
2013-7-15,94.3,71.6,50.1,58.3,52.4,46.3,93,56,26,29.95,29.73,10,1,11,0.00
2013-7-16,85.7,68.4,56.7,61.2,56.4,52.6,90,68,40,30.02,29.74,9,1,10,0.00
2013-7-17,85.5,68.9,59.4,59.2,55.0,53.1,81,64,37,30.12,30.01,12,1,14,0.00
2013-7-18,91.5,69.7,50.6,61.2,53.7,47.6,94,62,29,30.16,30.00,11,1,12,0.00
2013-7-19,91.3,70.3,50.2,62.2,54.8,46.8,93,62,30,30.10,29.94,10,1,12,0.00
2013-7-20,90.6,70.5,53.2,62.3,55.7,50.1,93,64,30,30.03,29.87,12,2,13,0.00
2013-7-21,93.1,71.8,51.7,59.8,55.3,49.1,95,61,29,29.93,29.81,10,1,13,0.00
2013-7-22,93.9,72.1,53.9,62.3,55.5,49.5,94,63,24,29.97,29.86,11,2,12,0.00
2013-7-23,97.6,85.6,69.2,62.1,56.4,45.8,65,39,22,29.98,29.87,9,2,10,0.00
2013-7-24,80.5,63.3,56.7,60.1,54.5,52.4,88,74,50,29.98,29.94,4,0,5,0.00
2013-7-29,79.3,70.9,62.4,55.7,54.3,50.7,74,57,37,30.02,29.89,6,0,7,0.00
2013-7-30,85.7,67.5,52.1,59.4,54.3,48.6,92,67,34,30.11,30.01,9,1,11,0.00
2013-7-31,76.8,64.3,57.7,60.8,56.5,53.2,87,77,54,30.09,30.01,10,1,10,0.00
2013-8-1,64.9,60.6,57.2,59.0,55.9,54.2,91,85,72,30.12,30.05,5,0,6,0.01
2013-8-2,81.3,66.7,56.6,56.8,54.6,53.3,91,68,40,30.13,30.01,10,1,12,0.00
2013-8-3,87.9,67.7,49.2,60.5,54.5,46.5,96,67,36,30.07,29.91,9,1,12,0.00
2013-8-4,93.2,72.0,52.7,63.3,56.0,49.9,95,62,27,29.99,29.84,9,1,11,0.00
2013-8-5,94.9,74.3,54.9,64.1,57.2,51.3,94,60,29,29.97,29.84,10,1,12,0.00
2013-8-6,96.0,75.1,55.2,62.5,54.1,43.8,94,55,19,29.95,29.83,11,1,12,0.00
2013-8-7,72.6,63.3,56.0,57.3,53.3,49.3,89,71,53,30.03,29.89,9,1,10,0.00
2013-8-8,84.3,66.9,54.4,61.3,56.4,51.6,93,72,43,30.05,29.86,14,1,14,0.00
2013-8-9,87.8,71.2,62.8,65.7,61.2,57.8,88,73,41,29.92,29.81,13,1,15,0.00
2013-8-10,75.5,65.4,56.8,63.4,58.4,54.4,95,79,59,30.04,29.89,9,1,9,0.02
2013-8-11,82.1,67.5,57.8,60.9,57.8,55.3,93,74,45,30.05,29.94,10,1,13,0.00
2013-8-12,77.2,65.2,57.0,60.2,56.2,53.3,90,74,53,30.05,29.98,10,1,12,0.00
2013-8-13,87.9,70.1,49.1,60.3,52.9,46.6,92,60,32,30.07,29.89,9,1,12,0.00
2013-8-14,89.2,69.9,53.2,59.8,54.0,49.8,92,62,27,29.96,29.88,11,1,14,0.00
2013-8-15,86.7,69.9,54.9,65.2,59.5,51.5,94,72,45,29.95,29.90,12,1,12,0.00
2013-8-16,88.6,73.4,63.8,66.4,62.0,54.3,91,70,40,30.02,29.93,11,1,15,0.00
2013-8-17,87.2,69.8,52.4,61.0,56.1,49.0,93,65,39,30.07,29.96,11,1,13,0.00
2013-8-18,88.0,70.5,54.4,62.9,57.2,51.2,95,66,36,30.10,29.97,11,1,11,0.00
2013-8-19,90.3,71.7,54.0,62.1,56.5,50.9,95,63,30,30.08,29.95,14,1,14,0.00
2013-8-20,88.5,67.7,53.2,58.1,51.7,43.1,92,61,24,30.08,29.90,12,1,13,0.00
2013-8-21,87.0,70.9,51.4,57.2,53.2,46.4,85,56,35,29.95,29.81,9,0,9,0.00
2013-8-22,83.8,73.0,63.3,69.7,60.8,55.8,85,67,45,29.89,29.81,9,1,11,0.01
2013-8-23,78.2,66.4,58.9,59.5,56.7,54.7,86,72,49,29.93,29.84,10,1,11,0.00
2013-8-24,76.5,66.3,57.6,59.1,55.8,53.3,90,71,47,29.89,29.81,9,1,10,0.00
2013-8-25,70.2,61.2,55.5,63.0,57.5,51.9,96,88,75,29.93,29.86,7,0,7,0.12
2013-8-26,82.6,68.3,59.4,63.7,57.2,52.3,96,72,38,29.95,29.87,13,1,17,0.00
2013-8-27,87.3,67.4,51.5,61.2,55.6,49.0,96,69,37,29.94,29.75,13,1,13,0.00
2013-8-28,85.0,69.9,57.2,63.0,59.0,54.6,94,71,43,29.88,29.80,12,1,12,0.00
2013-8-29,79.7,70.2,62.4,67.3,62.8,59.1,91,78,63,30.06,29.83,9,1,11,0.00
2013-8-30,85.0,72.2,63.7,65.6,61.4,57.3,95,72,42,30.11,29.98,10,1,11,0.01
2013-8-31,88.5,70.2,54.4,63.6,58.6,51.9,96,70,40,29.99,29.79,9,1,10,0.00
2013-9-1,86.5,69.4,54.1,60.8,55.5,50.9,94,65,34,29.89,29.76,12,1,12,0.00
2013-9-2,82.0,68.5,58.4,60.8,56.4,53.9,91,68,42,29.91,29.84,11,1,11,0.00
2013-9-3,82.3,69.4,59.9,57.3,54.9,51.4,85,62,37,29.99,29.90,12,1,12,0.00
2013-9-4,74.7,66.0,57.0,59.1,56.8,52.4,90,73,55,30.02,29.96,8,1,9,0.00
2013-9-5,68.9,60.9,55.8,61.4,57.5,52.8,96,89,72,30.09,29.97,9,0,11,0.08
2013-9-6,75.3,63.7,57.9,63.3,58.7,54.8,98,85,60,30.17,30.07,8,1,10,0.00
2013-9-7,76.2,62.9,53.6,63.2,57.2,51.6,97,83,62,30.07,29.91,10,1,12,0.00
2013-9-8,85.0,67.2,54.5,66.3,58.9,52.7,97,78,46,30.03,29.92,10,1,11,0.00
2013-9-9,89.3,69.9,54.7,67.0,58.9,52.8,97,72,37,29.99,29.84,11,1,13,0.00
2013-9-10,63.5,62.2,60.9,58.3,57.9,57.3,88,86,83,29.87,29.86,0,0,2,0.00
2013-9-14,69.5,65.7,60.7,63.4,61.6,58.3,96,87,80,29.80,29.69,8,1,9,0.00
2013-9-15,67.9,62.3,58.8,61.2,58.6,55.7,98,88,77,29.91,29.73,7,0,9,0.03
2013-9-16,72.6,63.4,57.8,57.8,55.6,53.3,92,77,53,29.97,29.86,7,1,8,0.00
2013-9-17,63.7,58.1,54.0,60.1,55.4,52.0,96,91,82,30.03,29.82,10,0,12,0.12
2013-9-18,73.0,62.5,51.1,58.8,52.4,47.6,97,72,44,30.09,29.97,9,1,9,0.02
2013-9-19,78.9,59.6,43.4,57.3,50.1,41.5,97,74,41,29.98,29.77,8,1,8,0.00
2013-9-20,73.4,57.7,46.4,57.9,52.2,44.3,97,84,50,29.78,29.65,9,1,13,0.03
2013-9-21,65.8,58.9,55.7,59.0,55.9,53.6,97,90,71,29.82,29.66,7,0,8,0.00
2013-9-22,63.3,56.7,53.9,56.8,54.0,51.9,96,91,71,29.91,29.72,19,2,20,0.00
2013-9-23,62.8,56.7,50.7,58.8,54.2,49.5,98,92,78,30.01,29.90,11,1,12,0.00
2013-9-24,61.3,54.2,49.5,56.6,52.5,48.3,97,94,79,29.98,29.88,9,1,11,0.98
2013-9-25,60.6,51.8,47.9,54.0,49.2,46.8,97,91,69,30.04,29.88,11,1,11,0.14
2013-9-26,65.3,53.7,46.4,53.3,48.7,44.1,100,85,55,30.18,30.04,8,0,11,0.00
2013-9-27,59.3,50.7,42.1,55.4,48.3,40.3,97,92,74,30.19,29.99,8,0,9,0.55
2013-9-28,67.3,58.3,52.6,59.7,55.7,51.1,98,92,68,29.99,29.58,17,2,24,1.09
2013-9-29,57.3,53.5,52.1,56.7,52.5,50.8,100,96,95,29.78,29.52,17,3,19,2.18
2013-9-30,59.6,53.1,49.9,54.4,50.7,48.0,96,92,78,30.03,29.70,21,2,21,0.17
2013-10-1,60.6,51.2,42.8,54.7,48.2,40.8,98,90,65,30.20,30.02,9,0,10,0.33
2013-10-2,56.1,46.8,39.1,51.3,44.7,38.0,98,93,77,30.19,30.10,7,0,8,0.26
2013-10-3,60.4,49.3,42.8,50.4,45.5,40.1,98,88,64,30.39,30.19,11,1,11,0.01
2013-10-4,57.1,47.0,38.0,51.7,43.7,36.8,97,89,76,30.42,30.31,10,1,10,0.00
2013-10-5,65.9,49.4,38.0,51.9,44.1,36.7,98,84,52,30.32,30.14,7,1,8,0.01
2013-10-11,58.9,52.2,46.3,49.6,46.5,44.6,96,82,64,30.13,30.07,7,0,8,0.00
2013-10-12,59.9,51.1,42.9,49.5,45.9,40.1,96,83,62,30.14,30.04,9,1,10,0.00
2013-10-13,53.4,46.5,40.4,47.9,43.3,38.2,96,89,79,30.27,30.13,10,1,11,0.00
2013-10-14,59.4,46.2,36.9,51.7,42.9,35.1,98,89,74,30.33,30.22,8,0,9,0.00
2013-10-15,62.8,47.3,33.2,49.8,41.4,31.6,97,82,58,30.26,30.11,8,0,9,0.00
2013-10-16,63.8,48.5,37.1,50.5,43.1,35.2,97,83,60,30.14,30.08,7,0,7,0.00
2013-10-17,59.2,47.5,37.7,51.4,43.9,36.1,98,88,74,30.19,30.10,8,0,9,0.00
2013-10-18,62.7,48.8,40.8,52.3,44.9,39.1,97,87,62,30.16,30.05,7,0,8,0.00
2013-10-19,66.3,50.3,39.5,53.8,45.7,37.9,98,86,59,30.13,30.06,7,0,7,0.00
2013-10-20,60.7,48.7,41.4,53.1,45.3,39.7,98,89,69,30.13,30.03,7,0,9,0.00
2013-10-21,60.0,48.1,39.6,53.1,45.3,37.8,97,91,75,30.07,29.96,7,0,7,0.00
2013-10-22,68.0,51.2,40.3,55.8,46.5,38.9,100,85,57,30.03,29.94,7,0,8,0.00
2013-10-23,66.8,51.9,41.2,55.5,47.4,39.8,97,86,65,29.99,29.92,7,0,7,0.00
2013-10-24,61.2,49.5,42.7,54.6,46.9,40.9,98,91,78,30.07,29.97,5,0,7,0.01
2013-10-25,52.5,49.2,44.0,50.5,47.9,42.3,97,95,92,30.24,30.07,5,0,5,0.01
2013-10-26,52.5,49.5,47.1,48.8,47.3,45.1,96,93,85,30.25,30.15,7,0,7,0.00
2013-10-27,52.4,48.7,44.9,51.2,47.3,43.1,97,95,92,30.16,29.80,14,0,14,0.15
2013-10-28,56.9,45.5,36.5,48.0,39.9,32.6,98,82,54,29.88,29.75,9,1,14,0.00
2013-10-29,54.3,40.3,29.8,39.6,34.1,28.1,97,80,50,30.08,29.88,7,0,8,0.00
2013-10-30,58.4,43.4,30.4,46.1,38.4,28.9,100,84,59,30.19,30.07,6,0,7,0.01
2013-10-31,58.2,51.9,45.3,53.9,49.4,43.3,96,91,77,30.24,30.18,4,0,5,0.08
2013-11-1,55.8,51.7,47.8,52.7,49.7,46.9,98,93,85,30.24,29.93,8,1,11,0.00
2013-11-2,55.8,49.7,43.4,51.6,47.2,41.5,97,91,73,30.13,29.81,13,1,15,0.45
2013-11-3,49.9,45.0,41.6,47.6,43.3,40.4,100,94,81,30.21,30.12,8,1,9,0.35
2013-11-4,52.1,46.5,43.6,47.6,44.7,42.7,98,94,83,30.20,30.14,6,1,6,0.08
2013-11-11,49.2,45.3,43.3,47.9,44.3,42.6,100,97,93,30.13,30.01,5,0,5,0.00
2013-11-12,56.7,50.7,44.9,56.0,49.9,44.0,99,97,94,30.41,30.08,9,0,11,0.19
2013-11-13,51.7,49.7,47.8,50.5,48.8,46.7,98,97,95,30.45,30.25,6,0,7,0.00
2013-11-14,51.4,48.0,45.7,47.8,46.3,44.6,98,94,83,30.25,30.09,6,0,6,0.06
2013-11-15,49.9,46.1,43.8,47.2,43.8,42.2,98,92,83,30.09,29.70,18,2,22,0.00
2013-11-16,51.2,47.0,44.2,48.0,44.8,42.2,97,92,79,29.91,29.63,21,2,21,0.10
2013-11-17,54.4,47.4,41.3,47.8,44.2,39.4,96,89,73,30.06,29.91,12,1,16,0.04
2013-11-18,52.0,46.0,39.1,48.9,44.3,37.5,97,94,82,30.02,29.78,10,0,10,0.20
2013-11-19,54.3,49.8,42.7,53.9,48.9,39.5,100,97,91,29.95,29.76,9,1,11,0.22
2013-11-20,44.3,37.6,30.3,40.6,34.7,28.4,96,90,82,30.30,29.95,9,1,10,0.05
2013-11-21,41.8,32.1,26.6,32.7,28.6,24.8,100,88,67,30.53,30.30,7,0,7,0.24
2013-11-22,37.6,26.2,22.5,33.1,24.4,21.0,97,93,74,30.53,30.43,7,0,7,0.04